Maersk Bulan — 9V7693 — position and weather

sailwx.info

Track history (hours):
 
Tides and Currents Weather Stations Pressure Air Temp Water Temp Dewpoint Dewpoint Depression Visibility Wind Speed Wind Dir Waves Ship Positions

Maersk Bulan

Last reported at 2016-Sep-26 02:33 UTC. Time now 2016-Sep-28 00:06 UTC.
Position N 40°45' E 029°04'.

Length 223 m; draft 11 m.

Type: Ship (hazmat cat A). MMSI: 563455000.

Date/timePositionNaut miles runAvg speedWind from/ knotsBaromVisibWave heightAir tempDewpointWater temp
2016-Sep-26 02:33N 40°45' E 029°04'1211.4
2016-Sep-26 01:31N 40°44' E 029°20'1010.4
2016-Sep-26 00:33N 40°45' E 029°33'13 0.8
2016-Sep-25 07:33N 40°43' E 029°16'20 0.5
2016-Sep-23 13:33N 40°59' E 028°59'44813.6
2016-Sep-22 04:33N 44°43' E 037°49'0 0.0
2016-Sep-22 03:33N 44°43' E 037°49'0 0.0
2016-Sep-22 00:33N 44°43' E 037°49'0 0.0
2016-Sep-21 23:33N 44°43' E 037°49'0 0.0
2016-Sep-21 22:33N 44°43' E 037°49'0 0.0
2016-Sep-21 19:33N 44°43' E 037°49'0 0.0
2016-Sep-21 16:33N 44°43' E 037°49'0 0.0
2016-Sep-21 09:30N 44°43' E 037°49'0 0.0
2016-Sep-21 08:33N 44°43' E 037°49'0 0.0
2016-Sep-21 05:33N 44°43' E 037°49'0 0.0
2016-Sep-21 03:33N 44°43' E 037°49'0 0.0
2016-Sep-21 02:33N 44°43' E 037°49'0 0.0
2016-Sep-20 17:33N 44°43' E 037°49'12 4.0
2016-Sep-20 14:31N 44°31' E 037°49'1212.4
2016-Sep-20 13:32N 44°28' E 037°32'3 0.9
2016-Sep-20 10:33N 44°25' E 037°34'3 1.5
2016-Sep-20 08:33N 44°28' E 037°36'1 1.5
2016-Sep-20 07:33N 44°27' E 037°36'2 1.6
2016-Sep-20 06:34N 44°26' E 037°37'34 8.4
2016-Sep-20 02:32N 44°12' E 036°54'9812.3
2016-Sep-19 18:34N 44°15' E 034°38'5711.3
2016-Sep-19 13:28N 44°23' E 033°19'1112.1
2016-Sep-19 12:34N 44°31' E 033°08'1212.0
2016-Sep-19 11:34N 44°40' E 032°57'12913.6
2016-Sep-19 02:04N 46°16' E 030°53'1912.4
2016-Sep-19 00:33N 46°34' E 031°00'6 0.3
2016-Sep-18 02:32N 46°28' E 030°57'7 6.7
2016-Sep-18 01:32N 46°21' E 030°56'26 8.0
2016-Sep-17 22:17N 45°56' E 031°02'1012.2
2016-Sep-17 21:29N 45°46' E 030°57'1212.3
2016-Sep-17 20:33N 45°35' E 030°52'  
Track history (hours):
 
Tides and Currents Weather Stations Pressure Air Temp Water Temp Dewpoint Dewpoint Depression Visibility Wind Speed Wind Dir Waves Ship Positions

Maersk Bulan

Last reported at 2016-Sep-26 02:33 UTC. Time now 2016-Sep-28 00:06 UTC.
Position N 40°45' E 029°04'.

Length 223 m; draft 11 m.

Type: Ship (hazmat cat A). MMSI: 563455000.

Date/timePositionNaut miles runAvg speedWind from/ knotsBaromVisibWave heightAir tempDewpointWater temp
2016-Sep-26 02:33N 40°45' E 029°04'1211.4
2016-Sep-26 01:31N 40°44' E 029°20'1010.4
2016-Sep-26 00:33N 40°45' E 029°33'13 0.8
2016-Sep-25 07:33N 40°43' E 029°16'20 0.5
2016-Sep-23 13:33N 40°59' E 028°59'44813.6
2016-Sep-22 04:33N 44°43' E 037°49'0 0.0
2016-Sep-22 03:33N 44°43' E 037°49'0 0.0
2016-Sep-22 00:33N 44°43' E 037°49'0 0.0
2016-Sep-21 23:33N 44°43' E 037°49'0 0.0
2016-Sep-21 22:33N 44°43' E 037°49'0 0.0
2016-Sep-21 19:33N 44°43' E 037°49'0 0.0
2016-Sep-21 16:33N 44°43' E 037°49'0 0.0
2016-Sep-21 09:30N 44°43' E 037°49'0 0.0
2016-Sep-21 08:33N 44°43' E 037°49'0 0.0
2016-Sep-21 05:33N 44°43' E 037°49'0 0.0
2016-Sep-21 03:33N 44°43' E 037°49'0 0.0
2016-Sep-21 02:33N 44°43' E 037°49'0 0.0
2016-Sep-20 17:33N 44°43' E 037°49'12 4.0
2016-Sep-20 14:31N 44°31' E 037°49'1212.4
2016-Sep-20 13:32N 44°28' E 037°32'3 0.9
2016-Sep-20 10:33N 44°25' E 037°34'3 1.5
2016-Sep-20 08:33N 44°28' E 037°36'1 1.5
2016-Sep-20 07:33N 44°27' E 037°36'2 1.6
2016-Sep-20 06:34N 44°26' E 037°37'34 8.4
2016-Sep-20 02:32N 44°12' E 036°54'9812.3
2016-Sep-19 18:34N 44°15' E 034°38'5711.3
2016-Sep-19 13:28N 44°23' E 033°19'1112.1
2016-Sep-19 12:34N 44°31' E 033°08'1212.0
2016-Sep-19 11:34N 44°40' E 032°57'12913.6
2016-Sep-19 02:04N 46°16' E 030°53'1912.4
2016-Sep-19 00:33N 46°34' E 031°00'6 0.3
2016-Sep-18 02:32N 46°28' E 030°57'7 6.7
2016-Sep-18 01:32N 46°21' E 030°56'26 8.0
2016-Sep-17 22:17N 45°56' E 031°02'1012.2
2016-Sep-17 21:29N 45°46' E 030°57'1212.3
2016-Sep-17 20:33N 45°35' E 030°52'  

Dump ship's entire track history